createdAt,value
2019-02-21T00:01:43.165Z,8.50
2019-02-21T00:04:10.654Z,8.40
2019-02-21T00:06:38.156Z,8.56
2019-02-21T00:09:06.521Z,7.65
2019-02-21T00:11:34.071Z,8.49
2019-02-21T00:14:01.437Z,8.50
2019-02-21T00:16:28.990Z,8.49
2019-02-21T00:18:56.454Z,8.45
2019-02-21T00:21:23.894Z,8.42
2019-02-21T00:23:51.316Z,8.34
2019-02-21T00:26:18.736Z,8.21
2019-02-21T00:28:46.116Z,8.08
2019-02-21T00:31:13.586Z,7.93
2019-02-21T00:33:41.007Z,7.80
2019-02-21T00:36:08.462Z,7.70
2019-02-21T00:38:35.856Z,7.59
2019-02-21T00:41:03.865Z,7.53
2019-02-21T00:43:31.368Z,7.48
2019-02-21T00:45:58.781Z,7.38
2019-02-21T00:48:26.340Z,7.35
2019-02-21T00:50:53.775Z,7.18
2019-02-21T00:53:21.353Z,7.30
2019-02-21T00:55:48.792Z,7.23
2019-02-21T00:58:16.187Z,7.16
2019-02-21T01:00:46.448Z,7.12
2019-02-21T01:03:13.064Z,7.07
2019-02-21T01:05:40.473Z,7.01
2019-02-21T01:08:08.239Z,7.02
2019-02-21T01:10:35.776Z,7.07
2019-02-21T01:13:03.346Z,7.18
2019-02-21T01:15:30.837Z,7.23
2019-02-21T01:17:58.309Z,7.16
2019-02-21T01:20:25.813Z,7.21
2019-02-21T01:22:53.276Z,7.33
2019-02-21T01:25:20.711Z,7.42
2019-02-21T01:27:48.227Z,7.44
2019-02-21T01:30:15.707Z,7.43
2019-02-21T01:32:43.185Z,7.56
2019-02-21T01:35:10.609Z,7.44
2019-02-21T01:37:38.070Z,7.49
2019-02-21T01:40:05.757Z,7.46
2019-02-21T01:42:33.205Z,7.60
2019-02-21T01:45:00.581Z,7.61
2019-02-21T01:47:28.026Z,7.79
2019-02-21T01:49:55.596Z,7.92
2019-02-21T01:52:23.069Z,8.08
2019-02-21T01:54:50.645Z,8.11
2019-02-21T01:57:18.091Z,8.02
2019-02-21T01:59:45.637Z,8.19
2019-02-21T02:02:13.060Z,8.20
2019-02-21T02:04:40.482Z,8.23
2019-02-21T02:07:07.915Z,8.43
2019-02-21T02:09:35.409Z,8.40
2019-02-21T02:12:02.867Z,8.52
2019-02-21T02:14:30.333Z,8.62
2019-02-21T02:16:57.703Z,8.59
2019-02-21T02:19:25.180Z,8.49
2019-02-21T02:21:52.651Z,8.44
2019-02-21T02:24:20.084Z,8.51
2019-02-21T02:26:47.553Z,8.55
2019-02-21T02:29:15.023Z,8.39
2019-02-21T02:31:42.463Z,8.19
2019-02-21T02:34:09.901Z,7.98
2019-02-21T02:36:37.364Z,7.76
2019-02-21T02:39:05.197Z,7.57
2019-02-21T02:41:32.792Z,7.53
2019-02-21T02:44:00.284Z,7.47
2019-02-21T02:46:27.720Z,7.61
2019-02-21T02:48:55.189Z,7.45
2019-02-21T02:51:22.616Z,7.39
2019-02-21T02:53:50.054Z,7.34
2019-02-21T02:56:17.632Z,7.31
2019-02-21T02:58:45.725Z,7.38
2019-02-21T03:01:13.298Z,7.37
2019-02-21T03:03:40.754Z,7.34
2019-02-21T03:06:08.131Z,7.37
2019-02-21T03:08:35.562Z,7.26
2019-02-21T03:11:02.998Z,7.21
2019-02-21T03:13:30.470Z,7.10
2019-02-21T03:15:57.902Z,7.13
2019-02-21T03:18:25.348Z,7.05
2019-02-21T03:20:52.717Z,7.14
2019-02-21T03:23:20.163Z,7.17
2019-02-21T03:25:47.767Z,7.13
2019-02-21T03:28:15.213Z,7.08
2019-02-21T03:30:42.649Z,7.08
2019-02-21T03:33:10.136Z,7.02
2019-02-21T03:35:37.569Z,6.95
2019-02-21T03:38:04.992Z,6.94
2019-02-21T03:40:32.509Z,6.83
2019-02-21T03:42:59.952Z,6.68
2019-02-21T03:45:27.393Z,6.55
2019-02-21T03:47:54.794Z,6.48
2019-02-21T03:50:22.233Z,6.39
2019-02-21T03:52:49.676Z,6.32
2019-02-21T03:55:17.104Z,6.15
2019-02-21T03:57:44.687Z,6.04
2019-02-21T04:00:12.238Z,5.93
2019-02-21T04:02:39.693Z,5.86
2019-02-21T04:05:07.312Z,5.76
2019-02-21T04:07:34.725Z,5.65
2019-02-21T04:10:02.282Z,5.56
2019-02-21T04:12:29.671Z,5.33
2019-02-21T04:14:57.136Z,5.10
2019-02-21T04:17:24.537Z,4.94
2019-02-21T04:19:51.959Z,4.85
2019-02-21T04:22:19.428Z,4.77
2019-02-21T04:24:46.795Z,4.69
2019-02-21T04:27:14.296Z,4.64
2019-02-21T04:29:41.790Z,4.58
2019-02-21T04:32:16.929Z,4.53
2019-02-21T04:34:38.683Z,4.50
2019-02-21T04:37:06.201Z,4.63
2019-02-21T04:39:33.710Z,4.78
2019-02-21T04:42:01.179Z,5.11
2019-02-21T04:44:28.674Z,5.35
2019-02-21T04:46:56.155Z,5.53
2019-02-21T04:49:23.551Z,5.69
2019-02-21T04:51:50.969Z,5.92
2019-02-21T04:54:18.478Z,5.91
2019-02-21T04:56:45.835Z,5.93
2019-02-21T04:59:13.376Z,6.02
2019-02-21T05:01:40.845Z,6.01
2019-02-21T05:04:08.239Z,6.13
2019-02-21T05:06:35.670Z,6.16
2019-02-21T05:09:07.276Z,6.14
2019-02-21T05:11:33.833Z,6.09
2019-02-21T05:14:01.278Z,6.13
2019-02-21T05:16:28.688Z,6.00
2019-02-21T05:18:56.170Z,6.19
2019-02-21T05:21:23.627Z,6.34
2019-02-21T05:23:51.054Z,6.19
2019-02-21T05:26:24.302Z,6.19
2019-02-21T05:28:51.843Z,6.12
2019-02-21T05:31:47.813Z,6.05
2019-02-21T05:34:34.807Z,6.12
2019-02-21T05:37:11.386Z,6.16
2019-02-21T05:39:57.991Z,6.07
2019-02-21T05:42:54.021Z,6.21
2019-02-21T05:45:27.545Z,6.35
2019-02-21T05:48:11.597Z,6.42
2019-02-21T05:50:54.601Z,6.46
2019-02-21T05:53:39.652Z,6.49
2019-02-21T05:56:42.080Z,6.51
2019-02-21T05:59:28.001Z,6.37
2019-02-21T06:02:14.980Z,6.41
2019-02-21T06:05:01.968Z,6.44
2019-02-21T06:07:35.710Z,6.64
2019-02-21T06:10:19.630Z,6.68
2019-02-21T06:12:59.921Z,6.74
2019-02-21T06:15:37.879Z,6.77
2019-02-21T06:18:40.312Z,7.03
2019-02-21T06:21:27.285Z,7.10
2019-02-21T06:24:13.409Z,6.89
2019-02-21T06:27:03.265Z,6.75
2019-02-21T06:29:39.942Z,7.14
2019-02-21T06:32:14.281Z,7.19
2019-02-21T06:34:36.798Z,7.01
2019-02-21T06:37:04.271Z,7.05
2019-02-21T06:39:31.713Z,6.84
2019-02-21T06:42:00.281Z,7.13
2019-02-21T06:44:28.046Z,6.87
2019-02-21T06:46:55.506Z,7.11
2019-02-21T06:49:32.145Z,7.10
2019-02-21T06:51:52.456Z,7.18
2019-02-21T06:54:22.474Z,7.20
2019-02-21T06:56:49.654Z,6.98
2019-02-21T06:59:17.164Z,7.22
2019-02-21T07:01:44.557Z,7.14
2019-02-21T07:04:12.189Z,7.29
2019-02-21T07:06:40.330Z,7.29
2019-02-21T07:09:07.753Z,7.35
2019-02-21T07:11:35.228Z,7.32
2019-02-21T07:14:02.867Z,7.31
2019-02-21T07:16:30.426Z,7.19
2019-02-21T07:18:57.922Z,7.28
2019-02-21T07:21:25.430Z,7.27
2019-02-21T07:23:53.290Z,7.47
2019-02-21T07:26:20.790Z,7.68
2019-02-21T07:28:49.107Z,7.62
2019-02-21T07:31:27.796Z,7.52
2019-02-21T07:33:48.290Z,7.66
2019-02-21T07:36:17.422Z,7.78
2019-02-21T07:38:44.925Z,7.67
2019-02-21T07:41:13.401Z,7.39
2019-02-21T07:43:42.246Z,7.17
2019-02-21T07:46:09.924Z,7.20
2019-02-21T07:48:37.497Z,7.34
2019-02-21T07:51:05.202Z,7.16
2019-02-21T07:53:32.767Z,7.20
2019-02-21T07:56:00.319Z,7.16
2019-02-21T07:58:27.876Z,7.50
2019-02-21T08:00:55.419Z,7.61
2019-02-21T08:03:31.882Z,7.78
2019-02-21T08:05:52.240Z,7.80
2019-02-21T08:08:21.029Z,7.96
2019-02-21T08:10:48.842Z,7.83
2019-02-21T08:13:16.307Z,7.90
2019-02-21T08:15:43.814Z,7.91
2019-02-21T08:18:11.425Z,7.70
2019-02-21T08:20:41.080Z,7.86
2019-02-21T08:23:10.889Z,8.07
2019-02-21T08:25:38.465Z,8.09
2019-02-21T08:28:05.984Z,7.92
2019-02-21T08:30:33.435Z,7.74
2019-02-21T08:33:11.912Z,7.96
2019-02-21T08:35:39.365Z,8.27
2019-02-21T08:38:06.742Z,8.61
2019-02-21T08:40:34.161Z,8.74
2019-02-21T08:43:03.970Z,8.53
2019-02-21T08:45:30.987Z,8.28
2019-02-21T08:47:58.361Z,8.58
2019-02-21T08:50:25.824Z,8.76
2019-02-21T08:52:53.258Z,8.76
2019-02-21T08:55:20.757Z,9.05
2019-02-21T08:57:48.243Z,9.02
2019-02-21T09:00:15.987Z,9.29
2019-02-21T09:02:43.585Z,9.51
2019-02-21T09:05:11.610Z,9.78
2019-02-21T09:07:39.170Z,9.88
2019-02-21T09:10:08.053Z,9.80
2019-02-21T09:12:35.434Z,9.72
2019-02-21T09:15:03.032Z,9.92
2019-02-21T09:17:32.211Z,10.33
2019-02-21T09:19:59.805Z,10.25
2019-02-21T09:22:27.273Z,10.42
2019-02-21T09:24:54.717Z,10.61
2019-02-21T09:27:22.054Z,10.89
2019-02-21T09:29:49.585Z,10.77
2019-02-21T09:32:17.027Z,11.14
2019-02-21T09:34:44.425Z,11.28
2019-02-21T09:37:11.901Z,10.89
2019-02-21T09:39:39.347Z,10.76
2019-02-21T09:42:06.793Z,10.57
2019-02-21T09:44:35.917Z,10.62
2019-02-21T09:47:03.714Z,10.61
2019-02-21T09:49:31.209Z,10.64
2019-02-21T09:51:58.798Z,10.18
2019-02-21T09:54:26.298Z,10.25
2019-02-21T09:56:53.827Z,10.17
2019-02-21T09:59:21.290Z,10.50
2019-02-21T10:01:48.713Z,10.33
2019-02-21T10:04:16.124Z,10.16
2019-02-21T10:06:43.575Z,10.36
2019-02-21T10:09:11.061Z,10.90
2019-02-21T10:11:38.513Z,11.52
2019-02-21T10:14:05.977Z,11.65
2019-02-21T10:16:33.542Z,11.54
2019-02-21T10:19:01.020Z,11.61
2019-02-21T10:21:28.519Z,12.12
2019-02-21T10:23:56.869Z,11.81
2019-02-21T10:26:24.547Z,11.45
2019-02-21T10:28:52.053Z,11.35
2019-02-21T10:31:19.528Z,11.69
2019-02-21T10:33:47.505Z,11.63
2019-02-21T10:36:15.120Z,11.72
2019-02-21T10:38:42.640Z,11.69
2019-02-21T10:41:10.666Z,11.42
2019-02-21T10:43:38.159Z,11.37
2019-02-21T10:46:05.672Z,11.50
2019-02-21T10:48:33.131Z,11.26
2019-02-21T10:51:00.617Z,11.48
2019-02-21T10:53:28.215Z,11.25
2019-02-21T10:55:55.812Z,11.59
2019-02-21T10:58:23.341Z,11.57
2019-02-21T11:00:50.786Z,11.35
2019-02-21T11:03:18.257Z,11.35
2019-02-21T11:05:45.836Z,11.08
2019-02-21T11:08:13.263Z,11.05
2019-02-21T11:10:40.862Z,11.19
2019-02-21T11:13:08.370Z,11.33
2019-02-21T11:15:35.845Z,11.11
2019-02-21T11:18:03.349Z,11.09
2019-02-21T11:20:30.851Z,11.23
2019-02-21T11:22:58.283Z,11.41
2019-02-21T11:25:25.760Z,11.33
2019-02-21T11:27:53.221Z,10.98
2019-02-21T11:30:20.988Z,10.94
2019-02-21T11:32:48.610Z,10.73
2019-02-21T11:35:16.571Z,11.03
2019-02-21T11:37:46.879Z,10.74
2019-02-21T11:40:14.434Z,10.78
2019-02-21T11:42:41.973Z,11.00
2019-02-21T11:45:12.190Z,11.13
2019-02-21T11:47:39.656Z,11.61
2019-02-21T11:50:11.092Z,11.61
2019-02-21T11:52:38.618Z,11.75
2019-02-21T11:55:07.202Z,11.74
2019-02-21T11:57:34.623Z,11.59
2019-02-21T12:00:02.223Z,11.68
2019-02-21T12:02:38.573Z,11.36
2019-02-21T12:04:59.068Z,11.28
2019-02-21T12:07:26.470Z,11.66
2019-02-21T12:09:54.003Z,11.78
2019-02-21T12:12:21.460Z,11.70
2019-02-21T12:14:48.987Z,11.91
2019-02-21T12:17:16.888Z,11.98
2019-02-21T12:19:44.308Z,12.10
2019-02-21T12:22:11.875Z,12.03
2019-02-21T12:24:39.458Z,11.86
2019-02-21T12:27:06.877Z,11.89
2019-02-21T12:29:34.537Z,11.96
2019-02-21T12:32:02.072Z,11.95
2019-02-21T12:34:29.440Z,11.45
2019-02-21T12:36:56.890Z,11.46
2019-02-21T12:39:24.373Z,11.20
2019-02-21T12:41:51.935Z,10.71
2019-02-21T12:44:19.444Z,10.45
2019-02-21T12:46:46.940Z,10.72
2019-02-21T12:49:14.405Z,11.34
2019-02-21T12:51:41.873Z,11.59
2019-02-21T12:54:09.435Z,11.68
2019-02-21T12:56:37.067Z,11.64
2019-02-21T12:59:04.805Z,10.92
2019-02-21T13:01:32.317Z,10.68
2019-02-21T13:04:00.053Z,10.68
2019-02-21T13:06:27.605Z,10.94
2019-02-21T13:08:55.076Z,11.14
2019-02-21T13:11:22.576Z,11.06
2019-02-21T13:13:49.988Z,11.06
2019-02-21T13:16:17.462Z,11.35
2019-02-21T13:18:44.973Z,11.43
2019-02-21T13:21:12.444Z,11.54
2019-02-21T13:23:42.774Z,11.71
2019-02-21T13:26:09.377Z,11.59
2019-02-21T13:28:36.872Z,11.82
2019-02-21T13:31:04.423Z,12.02
2019-02-21T13:33:31.932Z,12.37
2019-02-21T13:35:59.434Z,12.46
2019-02-21T13:38:26.994Z,12.56
2019-02-21T13:40:54.330Z,12.27
2019-02-21T13:43:21.765Z,12.06
2019-02-21T13:45:49.240Z,12.37
2019-02-21T13:48:16.697Z,12.20
2019-02-21T13:50:44.109Z,12.15
2019-02-21T13:53:11.642Z,12.19
2019-02-21T13:55:39.143Z,12.05
2019-02-21T13:58:06.780Z,12.20
2019-02-21T14:00:34.287Z,12.34
2019-02-21T14:03:02.230Z,12.62
2019-02-21T14:05:29.701Z,12.25
2019-02-21T14:07:57.172Z,12.10
2019-02-21T14:10:24.773Z,12.13
2019-02-21T14:12:52.425Z,12.32
2019-02-21T14:15:21.999Z,12.34
2019-02-21T14:17:49.771Z,12.25
2019-02-21T14:20:17.322Z,12.30
2019-02-21T14:22:44.964Z,11.56
2019-02-21T14:25:12.469Z,11.42
2019-02-21T14:27:40.114Z,11.34
2019-02-21T14:30:10.372Z,11.29
2019-02-21T14:32:37.954Z,11.23
2019-02-21T14:35:11.883Z,11.39
2019-02-21T14:37:39.389Z,11.56
2019-02-21T14:40:08.787Z,11.98
2019-02-21T14:42:36.241Z,12.11
2019-02-21T14:45:04.181Z,12.09
2019-02-21T14:47:31.747Z,11.96
2019-02-21T14:49:59.165Z,11.77
2019-02-21T14:52:26.729Z,11.32
2019-02-21T14:54:54.187Z,11.33
2019-02-21T14:57:21.757Z,11.20
2019-02-21T14:59:49.941Z,11.32
2019-02-21T15:02:17.394Z,11.26
2019-02-21T15:04:44.876Z,11.00
2019-02-21T15:07:12.363Z,10.95
2019-02-21T15:09:39.845Z,11.08
2019-02-21T15:12:07.387Z,11.12
2019-02-21T15:14:34.780Z,10.97
2019-02-21T15:17:03.812Z,10.71
2019-02-21T15:19:31.645Z,10.76
2019-02-21T15:21:59.171Z,10.91
2019-02-21T15:24:26.725Z,11.06
2019-02-21T15:26:54.129Z,10.99
2019-02-21T15:29:21.672Z,10.78
2019-02-21T15:31:49.202Z,10.94
2019-02-21T15:34:16.777Z,10.82
2019-02-21T15:36:44.265Z,10.72
2019-02-21T15:39:11.736Z,10.72
2019-02-21T15:41:39.225Z,10.50
2019-02-21T15:44:06.711Z,10.52
2019-02-21T15:46:34.217Z,10.61
2019-02-21T15:49:01.700Z,10.51
2019-02-21T15:51:29.096Z,10.48
2019-02-21T15:53:56.590Z,10.34
2019-02-21T15:56:24.073Z,10.05
2019-02-21T15:58:51.532Z,10.05
2019-02-21T16:01:19.176Z,9.93
2019-02-21T16:03:46.785Z,9.83
2019-02-21T16:06:14.192Z,9.71
2019-02-21T16:08:41.697Z,9.66
2019-02-21T16:11:09.371Z,9.73
2019-02-21T16:13:37.266Z,9.74
2019-02-21T16:16:05.291Z,9.76
2019-02-21T16:18:32.953Z,9.71
2019-02-21T16:21:00.443Z,9.85
2019-02-21T16:23:27.833Z,9.93
2019-02-21T16:25:55.309Z,9.74
2019-02-21T16:28:22.772Z,9.73
2019-02-21T16:30:50.772Z,9.64
2019-02-21T16:33:18.201Z,9.69
2019-02-21T16:35:45.781Z,9.63
2019-02-21T16:38:13.237Z,9.58
2019-02-21T16:40:40.885Z,9.68
2019-02-21T16:43:08.488Z,9.67
2019-02-21T16:45:43.540Z,9.50
2019-02-21T16:48:05.317Z,9.48
2019-02-21T16:50:32.788Z,9.41
2019-02-21T16:53:00.245Z,9.51
2019-02-21T16:55:27.743Z,9.42
2019-02-21T16:57:55.275Z,9.33
2019-02-21T17:00:22.842Z,9.33
2019-02-21T17:02:50.453Z,9.35
2019-02-21T17:05:18.050Z,9.53
2019-02-21T17:07:45.488Z,9.57
2019-02-21T17:10:13.606Z,9.57
2019-02-21T17:12:41.048Z,9.54
2019-02-21T17:15:09.685Z,9.43
2019-02-21T17:17:37.131Z,9.37
2019-02-21T17:20:05.649Z,9.36
2019-02-21T17:22:33.174Z,9.33
2019-02-21T17:25:00.647Z,9.27
2019-02-21T17:27:28.058Z,9.28
2019-02-21T17:29:55.542Z,9.27
2019-02-21T17:32:23.074Z,9.26
2019-02-21T17:34:51.000Z,9.15
2019-02-21T17:37:24.863Z,9.20
2019-02-21T17:39:47.974Z,9.27
2019-02-21T17:42:15.454Z,9.36
2019-02-21T17:44:42.897Z,9.45
2019-02-21T17:47:10.347Z,9.56
2019-02-21T17:49:37.919Z,9.42
2019-02-21T17:52:05.468Z,9.43
2019-02-21T17:54:32.950Z,9.44
2019-02-21T17:57:01.886Z,9.42
2019-02-21T17:59:29.523Z,9.46
2019-02-21T18:01:57.045Z,9.51
2019-02-21T18:04:24.711Z,9.48
2019-02-21T18:06:52.197Z,9.43
2019-02-21T18:09:19.686Z,9.32
2019-02-21T18:11:49.233Z,9.28
2019-02-21T18:14:16.746Z,9.12
2019-02-21T18:16:45.147Z,9.26
2019-02-21T18:19:12.679Z,9.31
2019-02-21T18:21:40.509Z,9.44
2019-02-21T18:24:08.584Z,9.35
2019-02-21T18:26:36.612Z,9.30
2019-02-21T18:29:05.301Z,9.20
2019-02-21T18:31:33.013Z,9.39
2019-02-21T18:34:00.620Z,9.22
2019-02-21T18:36:28.218Z,9.28
2019-02-21T18:38:55.784Z,9.12
2019-02-21T18:41:24.100Z,9.18
2019-02-21T18:43:52.329Z,9.07
2019-02-21T18:46:19.798Z,9.01
2019-02-21T18:48:47.353Z,8.98
2019-02-21T18:51:14.939Z,8.97
2019-02-21T18:53:42.411Z,9.19
2019-02-21T18:56:10.362Z,9.13
2019-02-21T18:58:37.887Z,9.13
2019-02-21T19:01:05.870Z,9.00
2019-02-21T19:03:33.298Z,8.98
2019-02-21T19:06:01.522Z,8.88
2019-02-21T19:08:29.202Z,8.73
2019-02-21T19:10:56.643Z,8.77
2019-02-21T19:13:24.159Z,8.84
2019-02-21T19:15:51.795Z,8.74
2019-02-21T19:18:19.484Z,8.84
2019-02-21T19:20:47.571Z,8.88
2019-02-21T19:23:15.045Z,8.72
2019-02-21T19:25:42.540Z,8.62
2019-02-21T19:28:09.998Z,8.58
2019-02-21T19:30:41.945Z,8.81
2019-02-21T19:33:09.800Z,8.65
2019-02-21T19:35:37.330Z,8.95
2019-02-21T19:38:10.570Z,8.69
2019-02-21T19:40:35.062Z,8.74
2019-02-21T19:43:02.589Z,8.74
2019-02-21T19:45:30.396Z,8.90
2019-02-21T19:47:57.847Z,8.67
2019-02-21T19:50:26.018Z,8.61
2019-02-21T19:52:53.745Z,8.61
2019-02-21T19:55:21.954Z,8.45
2019-02-21T19:57:49.782Z,8.52
2019-02-21T20:00:19.589Z,8.62
2019-02-21T20:02:47.228Z,8.52
2019-02-21T20:05:14.991Z,8.61
2019-02-21T20:07:42.567Z,8.49
2019-02-21T20:10:10.263Z,8.54
2019-02-21T20:12:38.173Z,8.52
2019-02-21T20:15:20.846Z,8.58
2019-02-21T20:17:49.539Z,8.54
2019-02-21T20:20:17.497Z,8.41
2019-02-21T20:22:45.078Z,8.46
2019-02-21T20:25:13.109Z,8.51
2019-02-21T20:27:40.739Z,8.50
2019-02-21T20:30:10.828Z,8.49
2019-02-21T20:32:38.474Z,8.44
2019-02-21T20:35:06.171Z,8.16
2019-02-21T20:37:33.807Z,8.22
2019-02-21T20:40:01.375Z,8.21
2019-02-21T20:42:31.353Z,8.01
2019-02-21T20:44:58.351Z,8.01
2019-02-21T20:47:25.858Z,8.01
2019-02-21T20:49:53.435Z,7.99
2019-02-21T20:52:21.114Z,8.10
2019-02-21T20:54:48.773Z,8.34
2019-02-21T20:57:16.127Z,8.14
2019-02-21T20:59:43.701Z,7.89
2019-02-21T21:02:11.373Z,8.03
2019-02-21T21:04:38.828Z,7.93
2019-02-21T21:07:06.296Z,8.02
2019-02-21T21:09:34.255Z,8.04
2019-02-21T21:12:01.836Z,7.96
2019-02-21T21:14:29.352Z,8.09
2019-02-21T21:16:56.849Z,7.92
2019-02-21T21:19:24.282Z,7.98
2019-02-21T21:21:51.751Z,7.96
2019-02-21T21:24:19.189Z,7.74
2019-02-21T21:26:46.718Z,7.62
2019-02-21T21:29:14.188Z,7.49
2019-02-21T21:31:41.603Z,7.46
2019-02-21T21:34:09.100Z,7.37
2019-02-21T21:36:36.647Z,7.46
2019-02-21T21:39:04.740Z,7.56
2019-02-21T21:41:32.328Z,7.68
2019-02-21T21:43:59.867Z,7.63
2019-02-21T21:46:27.358Z,7.40
2019-02-21T21:48:54.832Z,7.53
2019-02-21T21:51:22.604Z,7.50
2019-02-21T21:53:50.121Z,7.50
2019-02-21T21:56:17.683Z,7.27
2019-02-21T21:58:45.495Z,7.28
2019-02-21T22:01:13.075Z,6.95
2019-02-21T22:03:40.692Z,6.38
2019-02-21T22:06:08.134Z,5.77
2019-02-21T22:08:35.687Z,4.99
2019-02-21T22:11:03.449Z,5.04
2019-02-21T22:13:31.008Z,4.58
2019-02-21T22:15:58.472Z,4.19
2019-02-21T22:18:26.109Z,3.81
2019-02-21T22:20:53.651Z,3.62
2019-02-21T22:23:21.121Z,3.42
2019-02-21T22:25:48.569Z,3.48
2019-02-21T22:28:16.072Z,3.64
2019-02-21T22:30:43.473Z,3.46
2019-02-21T22:33:11.021Z,3.28
2019-02-21T22:35:38.487Z,3.18
2019-02-21T22:38:06.006Z,3.12
2019-02-21T22:40:33.504Z,3.09
2019-02-21T22:43:00.954Z,2.95
2019-02-21T22:45:28.444Z,2.91
2019-02-21T22:47:55.845Z,2.91
2019-02-21T22:50:23.402Z,3.01
2019-02-21T22:52:50.888Z,2.82
2019-02-21T22:55:18.336Z,3.02
2019-02-21T22:57:45.822Z,3.19
2019-02-21T23:00:58.953Z,3.26
2019-02-21T23:03:28.990Z,3.10
2019-02-21T23:06:36.498Z,3.18
2019-02-21T23:09:08.681Z,3.29
2019-02-21T23:11:36.524Z,3.28
2019-02-21T23:14:03.948Z,3.26
2019-02-21T23:16:31.750Z,3.29
2019-02-21T23:18:59.214Z,3.10
2019-02-21T23:21:26.652Z,3.12
2019-02-21T23:23:54.226Z,2.90
2019-02-21T23:26:21.730Z,2.65
2019-02-21T23:28:49.176Z,2.55
2019-02-21T23:31:16.669Z,2.66
2019-02-21T23:33:56.207Z,2.50
2019-02-21T23:36:23.687Z,2.43
2019-02-21T23:38:51.222Z,2.86
2019-02-21T23:41:18.740Z,3.13
2019-02-21T23:43:47.303Z,3.27
2019-02-21T23:46:15.061Z,3.34
2019-02-21T23:48:42.532Z,3.31
2019-02-21T23:51:10.068Z,3.23
2019-02-21T23:53:37.555Z,3.36
2019-02-21T23:56:04.990Z,3.30
2019-02-21T23:58:32.538Z,3.19
